Terminal Aerodrome Forecast
Issued by NWS

Home | Current Version | Previous Version | Text Only | Print | Product List | Glossary On
Versions: 1 2 3 4 5 6 7 8 9 10 11 12 13 14 15 16 17 18
992
FTUS43 KMQT 131736
TAFIWD
TAF
KIWD 131736Z 1318/1418 27006KT P6SM BKN026
     FM131900 27006KT P6SM SKC
     FM132300 00000KT P6SM FEW200
     FM141100 16006KT P6SM BKN200
      AMD LTD TO CLD VIS AND WIND=

USA.gov is the U.S. government's official web portal to all federal, state and local government web resources and services.